createdAt,value
2016-05-18T00:00:19.025Z,0
2016-05-18T00:01:19.121Z,0
2016-05-18T00:02:19.125Z,0
2016-05-18T00:03:18.986Z,0
2016-05-18T00:04:19.020Z,0
2016-05-18T00:05:19.273Z,0
2016-05-18T00:06:19.104Z,0
2016-05-18T00:07:19.138Z,0
2016-05-18T00:08:19.296Z,0
2016-05-18T00:09:19.237Z,0
2016-05-18T00:10:19.396Z,0
2016-05-18T00:11:19.430Z,0
2016-05-18T00:12:19.510Z,0
2016-05-18T00:13:19.357Z,0
2016-05-18T00:14:19.532Z,0
2016-05-18T00:15:19.596Z,0
2016-05-18T00:16:19.662Z,0
2016-05-18T00:17:19.665Z,0
2016-05-18T00:18:19.699Z,0
2016-05-18T00:19:19.748Z,0
2016-05-18T00:20:19.860Z,0
2016-05-18T00:21:19.675Z,0
2016-05-18T00:22:19.865Z,0
2016-05-18T00:23:19.993Z,0
2016-05-18T00:24:19.808Z,0
2016-05-18T00:25:19.843Z,0
2016-05-18T00:26:19.704Z,0
2016-05-18T00:27:20.035Z,0
2016-05-18T00:28:19.772Z,0
2016-05-18T00:29:20.119Z,0
2016-05-18T00:30:20.153Z,0
2016-05-18T00:31:19.733Z,0
2016-05-18T00:32:20.253Z,0
2016-05-18T00:33:20.270Z,0
2016-05-18T00:34:20.022Z,0
2016-05-18T00:35:20.369Z,0
2016-05-18T00:36:20.388Z,0
2016-05-18T00:37:20.280Z,0
2016-05-18T00:38:20.347Z,0
2016-05-18T00:39:20.364Z,0
2016-05-18T00:40:20.398Z,0
2016-05-18T00:41:20.605Z,0
2016-05-18T00:42:20.638Z,0
2016-05-18T00:43:20.546Z,0
2016-05-18T00:44:20.519Z,0
2016-05-18T00:45:20.740Z,0
2016-05-18T00:46:20.821Z,0
2016-05-18T00:47:20.651Z,0
2016-05-18T00:48:20.842Z,0
2016-05-18T00:49:20.890Z,0
2016-05-18T00:50:20.754Z,0
2016-05-18T00:51:20.975Z,0
2016-05-18T00:52:20.993Z,0
2016-05-18T00:53:20.871Z,0
2016-05-18T00:54:20.951Z,0
2016-05-18T00:55:21.095Z,0
2016-05-18T00:56:21.144Z,0
2016-05-18T00:57:20.850Z,0
2016-05-18T00:58:21.228Z,0
2016-05-18T00:59:21.090Z,0
2016-05-18T01:00:21.295Z,0
2016-05-18T01:01:21.033Z,0
2016-05-18T01:02:21.223Z,0
2016-05-18T01:03:21.413Z,0
2016-05-18T01:04:21.119Z,0
2016-05-18T01:05:21.481Z,0
2016-05-18T01:06:21.375Z,0
2016-05-18T01:07:21.393Z,0
2016-05-18T01:08:21.630Z,0
2016-05-18T01:09:21.617Z,0
2016-05-18T01:10:21.510Z,0
2016-05-18T01:11:21.763Z,0
2016-05-18T01:12:21.734Z,0
2016-05-18T01:13:21.644Z,0
2016-05-18T01:14:21.802Z,0
2016-05-18T01:15:21.726Z,0
2016-05-18T01:16:21.729Z,0
2016-05-18T01:17:21.920Z,0
2016-05-18T01:18:21.954Z,0
2016-05-18T01:19:22.050Z,0
2016-05-18T01:20:22.054Z,0
2016-05-18T01:21:22.087Z,0
2016-05-18T01:22:22.105Z,0
2016-05-18T01:23:22.170Z,0
2016-05-18T01:24:22.172Z,0
2016-05-18T01:25:22.238Z,0
2016-05-18T01:26:22.256Z,0
2016-05-18T01:27:22.368Z,0
2016-05-18T01:28:22.325Z,0
2016-05-18T01:29:22.373Z,0
2016-05-18T01:30:22.455Z,0
2016-05-18T01:31:22.472Z,0
2016-05-18T01:32:22.336Z,0
2016-05-18T01:33:22.369Z,0
2016-05-18T01:34:22.575Z,0
2016-05-18T01:35:22.593Z,0
2016-05-18T01:36:22.611Z,0
2016-05-18T01:37:22.677Z,0
2016-05-18T01:38:22.741Z,0
2016-05-18T01:39:22.744Z,0
2016-05-18T01:40:22.794Z,0
2016-05-18T01:41:22.813Z,0
2016-05-18T01:42:22.862Z,0
2016-05-18T01:43:22.771Z,0
2016-05-18T01:44:22.930Z,0
2016-05-18T01:45:22.995Z,0
2016-05-18T01:46:23.013Z,0
2016-05-18T01:47:22.891Z,0
2016-05-18T01:48:22.910Z,0
2016-05-18T01:49:23.131Z,0
2016-05-18T01:50:23.165Z,0
2016-05-18T01:51:23.182Z,0
2016-05-18T01:52:23.232Z,0
2016-05-18T01:53:23.501Z,0
2016-05-18T01:54:23.331Z,0
2016-05-18T01:55:23.334Z,0
2016-05-18T01:56:23.400Z,0
2016-05-18T01:57:23.403Z,0
2016-05-18T01:58:23.451Z,0
2016-05-18T01:59:23.501Z,0
2016-05-18T02:00:23.520Z,0
2016-05-18T02:01:23.631Z,0
2016-05-18T02:02:23.620Z,0
2016-05-18T02:03:23.637Z,0
2016-05-18T02:04:23.733Z,0
2016-05-18T02:05:23.767Z,0
2016-05-18T02:06:23.598Z,0
2016-05-18T02:07:23.788Z,0
2016-05-18T02:08:23.807Z,0
2016-05-18T02:09:23.888Z,0
2016-05-18T02:10:23.890Z,0
2016-05-18T02:11:23.972Z,0
2016-05-18T02:12:23.989Z,0
2016-05-18T02:13:24.023Z,0
2016-05-18T02:14:24.058Z,0
2016-05-18T02:15:24.076Z,0
2016-05-18T02:16:24.172Z,0
2016-05-18T02:17:24.159Z,0
2016-05-18T02:18:24.037Z,0
2016-05-18T02:19:24.274Z,0
2016-05-18T02:20:23.979Z,0
2016-05-18T02:21:24.326Z,0
2016-05-18T02:22:24.345Z,0
2016-05-18T02:23:24.441Z,0
2016-05-18T02:24:24.428Z,0
2016-05-18T02:25:24.462Z,0
2016-05-18T02:26:24.512Z,0
2016-05-18T02:27:24.545Z,0
2016-05-18T02:28:24.564Z,0
2016-05-18T02:29:24.628Z,0
2016-05-18T02:30:24.679Z,0
2016-05-18T02:31:24.509Z,0
2016-05-18T02:32:24.559Z,0
2016-05-18T02:33:24.749Z,0
2016-05-18T02:34:24.830Z,0
2016-05-18T02:35:24.817Z,0
2016-05-18T02:36:24.883Z,4
2016-05-18T02:37:24.900Z,0
2016-05-18T02:38:24.513Z,0
2016-05-18T02:39:24.984Z,4
2016-05-18T02:40:25.018Z,4
2016-05-18T02:41:25.067Z,0
2016-05-18T02:42:24.992Z,4
2016-05-18T02:43:25.135Z,8
2016-05-18T02:44:25.200Z,4
2016-05-18T02:45:25.202Z,4
2016-05-18T02:46:25.238Z,8
2016-05-18T02:47:25.271Z,8
2016-05-18T02:48:25.352Z,8
2016-05-18T02:49:25.229Z,12
2016-05-18T02:50:25.389Z,12
2016-05-18T02:51:25.454Z,12
2016-05-18T02:52:25.315Z,16
2016-05-18T02:53:25.616Z,16
2016-05-18T02:54:25.540Z,20
2016-05-18T02:55:25.604Z,24
2016-05-18T02:56:25.482Z,28
2016-05-18T02:57:25.642Z,28
2016-05-18T02:58:25.692Z,32
2016-05-18T02:59:25.600Z,40
2016-05-18T03:00:25.743Z,44
2016-05-18T03:01:25.637Z,48
2016-05-18T03:02:25.717Z,52
2016-05-18T03:03:25.892Z,56
2016-05-18T03:04:25.895Z,60
2016-05-18T03:05:25.929Z,68
2016-05-18T03:06:26.009Z,76
2016-05-18T03:07:25.872Z,80
2016-05-18T03:08:25.889Z,92
2016-05-18T03:09:25.939Z,96
2016-05-18T03:10:26.161Z,104
2016-05-18T03:11:26.069Z,112
2016-05-18T03:12:26.198Z,116
2016-05-18T03:13:26.278Z,128
2016-05-18T03:14:26.296Z,136
2016-05-18T03:15:26.174Z,148
2016-05-18T03:16:26.349Z,160
2016-05-18T03:17:26.430Z,164
2016-05-18T03:18:26.448Z,176
2016-05-18T03:19:26.327Z,184
2016-05-18T03:20:26.532Z,200
2016-05-18T03:21:26.581Z,212
2016-05-18T03:22:26.459Z,220
2016-05-18T03:23:26.351Z,228
2016-05-18T03:24:26.605Z,228
2016-05-18T03:25:26.764Z,232
2016-05-18T03:26:26.720Z,236
2016-05-18T03:27:26.785Z,244
2016-05-18T03:28:26.803Z,268
2016-05-18T03:29:26.743Z,304
2016-05-18T03:30:26.871Z,336
2016-05-18T03:31:26.921Z,364
2016-05-18T03:32:26.798Z,388
2016-05-18T03:33:26.879Z,416
2016-05-18T03:34:26.866Z,444
2016-05-18T03:35:27.087Z,472
2016-05-18T03:36:27.122Z,496
2016-05-18T03:37:27.139Z,520
2016-05-18T03:38:27.018Z,540
2016-05-18T03:39:27.238Z,560
2016-05-18T03:40:27.132Z,576
2016-05-18T03:41:27.135Z,580
2016-05-18T03:42:27.185Z,588
2016-05-18T03:43:27.359Z,600
2016-05-18T03:44:27.253Z,620
2016-05-18T03:45:27.443Z,656
2016-05-18T03:46:27.477Z,712
2016-05-18T03:47:27.542Z,768
2016-05-18T03:48:27.544Z,820
2016-05-18T03:49:27.594Z,872
2016-05-18T03:50:27.691Z,920
2016-05-18T03:51:27.521Z,956
2016-05-18T03:52:27.540Z,992
2016-05-18T03:53:27.839Z,1020
2016-05-18T03:54:27.796Z,1052
2016-05-18T03:55:27.657Z,1076
2016-05-18T03:56:27.848Z,1088
2016-05-18T03:57:27.929Z,1100
2016-05-18T03:58:27.931Z,1108
2016-05-18T03:59:27.981Z,1100
2016-05-18T04:00:28.014Z,1072
2016-05-18T04:01:27.876Z,1044
2016-05-18T04:02:28.129Z,1020
2016-05-18T04:03:28.117Z,1008
2016-05-18T04:04:28.353Z,1012
2016-05-18T04:05:28.075Z,1000
2016-05-18T04:06:28.234Z,988
2016-05-18T04:07:28.111Z,968
2016-05-18T04:08:28.848Z,968
2016-05-18T04:09:28.195Z,988
2016-05-18T04:10:28.369Z,1028
2016-05-18T04:11:28.450Z,1064
2016-05-18T04:12:28.453Z,1096
2016-05-18T04:13:28.503Z,1108
2016-05-18T04:14:28.521Z,1124
2016-05-18T04:15:28.586Z,1124
2016-05-18T04:16:28.479Z,1100
2016-05-18T04:17:28.497Z,1048
2016-05-18T04:18:28.703Z,992
2016-05-18T04:19:28.768Z,936
2016-05-18T04:20:28.756Z,920
2016-05-18T04:21:28.790Z,920
2016-05-18T04:22:28.839Z,928
2016-05-18T04:23:28.607Z,936
2016-05-18T04:24:28.923Z,964
2016-05-18T04:25:28.957Z,1008
2016-05-18T04:26:28.881Z,1076
2016-05-18T04:27:29.010Z,1176
2016-05-18T04:28:29.059Z,1256
2016-05-18T04:29:29.076Z,1360
2016-05-18T04:30:29.173Z,1460
2016-05-18T04:31:29.175Z,1564
2016-05-18T04:32:29.209Z,1660
2016-05-18T04:33:29.306Z,1716
2016-05-18T04:34:29.278Z,1732
2016-05-18T04:35:29.312Z,1772
2016-05-18T04:36:29.362Z,1876
2016-05-18T04:37:29.411Z,2000
2016-05-18T04:38:29.476Z,2100
2016-05-18T04:39:29.464Z,2236
2016-05-18T04:40:29.403Z,2364
2016-05-18T04:41:29.578Z,2464
2016-05-18T04:42:29.424Z,2544
2016-05-18T04:43:29.474Z,2620
2016-05-18T04:44:29.727Z,2668
2016-05-18T04:45:29.698Z,2708
2016-05-18T04:46:29.591Z,2744
2016-05-18T04:47:29.813Z,2796
2016-05-18T04:48:29.862Z,2852
2016-05-18T04:49:29.724Z,2932
2016-05-18T04:50:29.571Z,3052
2016-05-18T04:51:29.980Z,3124
2016-05-18T04:52:29.983Z,3168
2016-05-18T04:53:29.922Z,3200
2016-05-18T04:54:30.035Z,3240
2016-05-18T04:55:30.131Z,3324
2016-05-18T04:56:29.993Z,3396
2016-05-18T04:57:29.995Z,3408
2016-05-18T04:58:30.202Z,3420
2016-05-18T04:59:30.313Z,3360
2016-05-18T05:00:30.145Z,3336
2016-05-18T05:01:31.444Z,3284
2016-05-18T05:02:30.196Z,3216
2016-05-18T05:03:30.449Z,3200
2016-05-18T05:04:30.295Z,3176
2016-05-18T05:05:30.454Z,3132
2016-05-18T05:06:30.551Z,3060
2016-05-18T05:07:30.241Z,2992
2016-05-18T05:08:31.025Z,2960
2016-05-18T05:09:30.466Z,2976
2016-05-18T05:10:30.686Z,2964
2016-05-18T05:11:30.580Z,2972
2016-05-18T05:12:30.552Z,3000
2016-05-18T05:13:30.805Z,3080
2016-05-18T05:14:30.838Z,3192
2016-05-18T05:15:30.872Z,3328
2016-05-18T05:16:30.891Z,3476
2016-05-18T05:17:30.972Z,3636
2016-05-18T05:18:31.084Z,3784
2016-05-18T05:19:30.992Z,3932
2016-05-18T05:20:31.057Z,4052
2016-05-18T05:21:30.951Z,4160
2016-05-18T05:22:32.094Z,4288
2016-05-18T05:23:31.566Z,4432
2016-05-18T05:24:30.866Z,4576
2016-05-18T05:25:31.243Z,4708
2016-05-18T05:26:31.324Z,4844
2016-05-18T05:27:31.310Z,4992
2016-05-18T05:28:33.705Z,5108
2016-05-18T05:29:32.176Z,5204
2016-05-18T05:30:31.428Z,5324
2016-05-18T05:31:31.181Z,5436
2016-05-18T05:32:32.137Z,5496
2016-05-18T05:33:32.327Z,5428
2016-05-18T05:34:31.486Z,5316
2016-05-18T05:35:31.676Z,5236
2016-05-18T05:36:34.756Z,5160
2016-05-18T05:37:31.573Z,5152
2016-05-18T05:38:32.075Z,5220
2016-05-18T05:39:31.796Z,5332
2016-05-18T05:40:32.846Z,5484
2016-05-18T05:41:31.770Z,5680
2016-05-18T05:42:31.773Z,5924
2016-05-18T05:43:31.947Z,6056
2016-05-18T05:44:31.997Z,6220
2016-05-18T05:45:31.859Z,6484
2016-05-18T05:46:32.596Z,6696
2016-05-18T05:47:31.771Z,6768
2016-05-18T05:48:32.133Z,6736
2016-05-18T05:49:31.994Z,6648
2016-05-18T05:50:32.216Z,6516
2016-05-18T05:51:32.422Z,6424
2016-05-18T05:52:32.284Z,6368
2016-05-18T05:53:32.302Z,6416
2016-05-18T05:54:32.290Z,6572
2016-05-18T05:55:32.402Z,6676
2016-05-18T05:56:32.436Z,6868
2016-05-18T05:57:32.767Z,7024
2016-05-18T05:58:32.551Z,7092
2016-05-18T05:59:32.521Z,7168
2016-05-18T06:00:32.587Z,7272
2016-05-18T06:01:34.668Z,7508
2016-05-18T06:02:32.718Z,7616
2016-05-18T06:03:32.720Z,7896
2016-05-18T06:04:32.738Z,8088
2016-05-18T06:05:32.820Z,8192
2016-05-18T06:06:35.493Z,8424
2016-05-18T06:07:33.575Z,8480
2016-05-18T06:08:33.031Z,8424
2016-05-18T06:09:34.392Z,8444
2016-05-18T06:10:34.504Z,8396
2016-05-18T06:11:32.882Z,8356
2016-05-18T06:12:33.353Z,8308
2016-05-18T06:13:36.153Z,8268
2016-05-18T06:14:34.374Z,8208
2016-05-18T06:15:33.080Z,8184
2016-05-18T06:16:33.240Z,8160
2016-05-18T06:17:33.133Z,8268
2016-05-18T06:18:32.994Z,8576
2016-05-18T06:19:33.357Z,8936
2016-05-18T06:20:33.235Z,9184
2016-05-18T06:21:33.425Z,9216
2016-05-18T06:22:33.380Z,9132
2016-05-18T06:23:33.852Z,9084
2016-05-18T06:24:33.402Z,9204
2016-05-18T06:25:33.654Z,9320
2016-05-18T06:26:33.735Z,9400
2016-05-18T06:27:33.675Z,9396
2016-05-18T06:28:34.787Z,9276
2016-05-18T06:29:33.759Z,9140
2016-05-18T06:30:33.840Z,9120
2016-05-18T06:31:33.967Z,9168
2016-05-18T06:32:33.860Z,9212
2016-05-18T06:33:34.020Z,9376
2016-05-18T06:34:33.991Z,9700
2016-05-18T06:35:33.994Z,9964
2016-05-18T06:36:34.168Z,10260
2016-05-18T06:37:34.202Z,10432
2016-05-18T06:38:34.236Z,10500
2016-05-18T06:39:34.098Z,10464
2016-05-18T06:40:34.195Z,10464
2016-05-18T06:41:34.073Z,10508
2016-05-18T06:42:34.340Z,10544
2016-05-18T06:43:34.358Z,10652
2016-05-18T06:44:34.767Z,10684
2016-05-18T06:45:35.145Z,10728
2016-05-18T06:46:34.930Z,10680
2016-05-18T06:47:34.510Z,10724
2016-05-18T06:48:34.373Z,10740
2016-05-18T06:49:35.156Z,10660
2016-05-18T06:50:35.206Z,10616
2016-05-18T06:51:34.506Z,10616
2016-05-18T06:52:34.711Z,10668
2016-05-18T06:53:34.667Z,10736
2016-05-18T06:54:35.764Z,10956
2016-05-18T06:55:34.797Z,11316
2016-05-18T06:56:35.269Z,11676
2016-05-18T06:57:34.741Z,11880
2016-05-18T06:58:35.680Z,11908
2016-05-18T06:59:34.965Z,11900
2016-05-18T07:00:35.952Z,11924
2016-05-18T07:01:35.110Z,11940
2016-05-18T07:02:34.941Z,11944
2016-05-18T07:03:35.101Z,11844
2016-05-18T07:04:35.040Z,11720
2016-05-18T07:05:36.215Z,11544
2016-05-18T07:06:35.249Z,11336
2016-05-18T07:07:35.657Z,11120
2016-05-18T07:08:35.364Z,11032
2016-05-18T07:09:35.367Z,11056
2016-05-18T07:10:35.666Z,11096
2016-05-18T07:11:35.450Z,11124
2016-05-18T07:12:35.328Z,11060
2016-05-18T07:13:35.455Z,11184
2016-05-18T07:14:35.646Z,11512
2016-05-18T07:15:36.351Z,11976
2016-05-18T07:16:35.682Z,12444
2016-05-18T07:17:35.700Z,12916
2016-05-18T07:18:36.656Z,13212
2016-05-18T07:19:35.769Z,13320
2016-05-18T07:20:36.271Z,13540
2016-05-18T07:21:36.649Z,13788
2016-05-18T07:22:35.980Z,13740
2016-05-18T07:23:36.419Z,13564
2016-05-18T07:24:36.000Z,13476
2016-05-18T07:25:37.066Z,13292
2016-05-18T07:26:36.100Z,12980
2016-05-18T07:27:36.102Z,12456
2016-05-18T07:28:36.246Z,11672
2016-05-18T07:29:36.233Z,10896
2016-05-18T07:30:37.252Z,10104
2016-05-18T07:31:36.583Z,9496
2016-05-18T07:32:36.397Z,9076
2016-05-18T07:33:36.165Z,8940
2016-05-18T07:34:36.387Z,9040
2016-05-18T07:35:37.062Z,9172
2016-05-18T07:36:36.315Z,9088
2016-05-18T07:37:36.567Z,9372
2016-05-18T07:38:37.507Z,9380
2016-05-18T07:39:36.587Z,9424
2016-05-18T07:40:37.529Z,9536
2016-05-18T07:41:36.578Z,9848
2016-05-18T07:42:37.143Z,10308
2016-05-18T07:43:36.692Z,10592
2016-05-18T07:44:37.289Z,10968
2016-05-18T07:45:37.104Z,11228
2016-05-18T07:46:36.873Z,11192
2016-05-18T07:47:37.547Z,11368
2016-05-18T07:48:36.878Z,11948
2016-05-18T07:49:37.020Z,13024
2016-05-18T07:50:37.836Z,14256
2016-05-18T07:51:37.089Z,15412
2016-05-18T07:52:37.138Z,16384
2016-05-18T07:53:37.078Z,16928
2016-05-18T07:54:37.191Z,17280
2016-05-18T07:55:38.959Z,17216
2016-05-18T07:56:37.305Z,17216
2016-05-18T07:57:37.324Z,16672
2016-05-18T07:58:37.232Z,16416
2016-05-18T07:59:37.423Z,15944
2016-05-18T08:00:38.458Z,15804
2016-05-18T08:01:37.491Z,15532
2016-05-18T08:02:37.572Z,15272
2016-05-18T08:03:41.058Z,14964
2016-05-18T08:04:39.749Z,14060
2016-05-18T08:05:40.111Z,13140
2016-05-18T08:06:37.754Z,12372
2016-05-18T08:07:39.601Z,11544
2016-05-18T08:08:38.572Z,11000
2016-05-18T08:09:37.872Z,11092
2016-05-18T08:10:39.906Z,11208
2016-05-18T08:11:37.971Z,11128
2016-05-18T08:12:37.973Z,11076
2016-05-18T08:13:38.507Z,11152
2016-05-18T08:14:37.917Z,11360
2016-05-18T08:15:38.106Z,11680
2016-05-18T08:16:37.984Z,12100
2016-05-18T08:17:38.517Z,12820
2016-05-18T08:18:38.083Z,13700
2016-05-18T08:19:38.242Z,14848
2016-05-18T08:20:39.417Z,16168
2016-05-18T08:21:38.014Z,17504
2016-05-18T08:22:38.298Z,18304
2016-05-18T08:23:38.925Z,18752
2016-05-18T08:24:39.397Z,18752
2016-05-18T08:25:39.243Z,18752
2016-05-18T08:26:38.558Z,18880
2016-05-18T08:27:38.602Z,18464
2016-05-18T08:28:38.711Z,18368
2016-05-18T08:29:38.645Z,17984
2016-05-18T08:30:40.534Z,17568
2016-05-18T08:31:39.360Z,17408
2016-05-18T08:32:39.101Z,17600
2016-05-18T08:33:38.979Z,17408
2016-05-18T08:34:39.263Z,17088
2016-05-18T08:35:43.827Z,16364
2016-05-18T08:36:47.237Z,15896
2016-05-18T08:37:40.018Z,15484
2016-05-18T08:38:39.385Z,15148
2016-05-18T08:39:39.471Z,14988
2016-05-18T08:40:40.526Z,14776
2016-05-18T08:41:39.550Z,14596
2016-05-18T08:42:39.511Z,14772
2016-05-18T08:43:39.750Z,15016
2016-05-18T08:44:39.505Z,15400
2016-05-18T08:45:39.791Z,16056
2016-05-18T08:46:40.140Z,16676
2016-05-18T08:47:39.707Z,17344
2016-05-18T08:48:39.836Z,17696
2016-05-18T08:49:39.932Z,17824
2016-05-18T08:50:40.420Z,17952
2016-05-18T08:51:39.986Z,17952
2016-05-18T08:52:40.067Z,17280
2016-05-18T08:53:39.945Z,16340
2016-05-18T08:54:40.401Z,15692
2016-05-18T08:55:39.967Z,14972
2016-05-18T08:56:40.141Z,14832
2016-05-18T08:57:40.159Z,14216
2016-05-18T08:58:40.068Z,14248
2016-05-18T08:59:41.946Z,13872
2016-05-18T09:00:41.855Z,14196
2016-05-18T09:01:40.373Z,14900
2016-05-18T09:02:43.376Z,15520
2016-05-18T09:03:40.504Z,15704
2016-05-18T09:04:40.475Z,15372
2016-05-18T09:05:41.493Z,14984
2016-05-18T09:06:40.590Z,14924
2016-05-18T09:07:41.029Z,14972
2016-05-18T09:08:41.110Z,15216
2016-05-18T09:09:40.707Z,15540
2016-05-18T09:10:41.679Z,15652
2016-05-18T09:11:40.821Z,16148
2016-05-18T09:12:40.856Z,16388
2016-05-18T09:13:41.421Z,16572
2016-05-18T09:14:41.079Z,16356
2016-05-18T09:15:41.192Z,16452
2016-05-18T09:16:41.039Z,17528
2016-05-18T09:17:41.135Z,18336
2016-05-18T09:18:41.012Z,18688
2016-05-18T09:19:41.140Z,19072
2016-05-18T09:20:41.392Z,20032
2016-05-18T09:21:41.270Z,20896
2016-05-18T09:22:41.367Z,22048
2016-05-18T09:23:41.292Z,22784
2016-05-18T09:24:41.497Z,22848
2016-05-18T09:25:42.203Z,22240
2016-05-18T09:26:41.441Z,22112
2016-05-18T09:27:41.458Z,22240
2016-05-18T09:28:41.367Z,21952
2016-05-18T09:29:41.588Z,21984
2016-05-18T09:30:41.451Z,22208
2016-05-18T09:31:41.641Z,22912
2016-05-18T09:32:41.722Z,23840
2016-05-18T09:33:41.646Z,24384
2016-05-18T09:34:41.774Z,25248
2016-05-18T09:35:42.605Z,26848
2016-05-18T09:36:41.795Z,27136
2016-05-18T09:37:41.923Z,27680
2016-05-18T09:38:42.348Z,28064
2016-05-18T09:39:42.085Z,28832
2016-05-18T09:40:42.040Z,28704
2016-05-18T09:41:42.496Z,28096
2016-05-18T09:42:42.154Z,27904
2016-05-18T09:43:42.173Z,27680
2016-05-18T09:44:42.067Z,28128
2016-05-18T09:45:42.304Z,27872
2016-05-18T09:46:42.322Z,27904
2016-05-18T09:47:42.356Z,27328
2016-05-18T09:48:42.437Z,27008
2016-05-18T09:49:42.470Z,26496
2016-05-18T09:50:42.536Z,26688
2016-05-18T09:51:42.367Z,26976
2016-05-18T09:52:42.620Z,28320
2016-05-18T09:53:42.966Z,28096
2016-05-18T09:54:42.656Z,28224
2016-05-18T09:55:42.753Z,28480
2016-05-18T09:56:42.772Z,29120
2016-05-18T09:57:42.836Z,29152
2016-05-18T09:58:43.120Z,29856
2016-05-18T09:59:42.607Z,30752
2016-05-18T10:00:42.813Z,30944
2016-05-18T10:01:43.691Z,32288
2016-05-18T10:02:42.756Z,33024
2016-05-18T10:03:43.102Z,34304
2016-05-18T10:04:43.152Z,34112
2016-05-18T10:05:43.171Z,34784
2016-05-18T10:06:43.235Z,34848
2016-05-18T10:07:43.301Z,34464
2016-05-18T10:08:43.179Z,35136
2016-05-18T10:09:43.431Z,35168
2016-05-18T10:10:44.340Z,36096
2016-05-18T10:11:43.312Z,36448
2016-05-18T10:12:43.501Z,37632
2016-05-18T10:13:43.520Z,37888
2016-05-18T10:14:43.429Z,38176
2016-05-18T10:15:44.259Z,38592
2016-05-18T10:16:43.668Z,36160
2016-05-18T10:17:43.890Z,42080
2016-05-18T10:18:43.627Z,41056
2016-05-18T10:19:43.817Z,50784
2016-05-18T10:20:43.789Z,40320
2016-05-18T10:21:43.948Z,41792
2016-05-18T10:22:43.950Z,51168
2016-05-18T10:23:43.875Z,40800
2016-05-18T10:24:43.925Z,37216
2016-05-18T10:25:44.114Z,26592
2016-05-18T10:26:44.133Z,24960
2016-05-18T10:27:44.308Z,24640
2016-05-18T10:28:44.357Z,24352
2016-05-18T10:29:44.297Z,24224
2016-05-18T10:30:44.331Z,24224
2016-05-18T10:31:44.381Z,23264
2016-05-18T10:32:44.477Z,21056
2016-05-18T10:33:44.339Z,18688
2016-05-18T10:34:44.530Z,17152
2016-05-18T10:35:44.783Z,16416
2016-05-18T10:36:44.472Z,15544
2016-05-18T10:37:44.677Z,14972
2016-05-18T10:38:44.462Z,14464
2016-05-18T10:39:44.762Z,13896
2016-05-18T10:40:44.843Z,13308
2016-05-18T10:41:44.689Z,12700
2016-05-18T10:42:44.754Z,12496
2016-05-18T10:43:44.944Z,13012
2016-05-18T10:44:44.979Z,13980
2016-05-18T10:45:45.028Z,15088
2016-05-18T10:46:45.062Z,16448
2016-05-18T10:47:45.002Z,17376
2016-05-18T10:48:45.224Z,16960
2016-05-18T10:49:45.289Z,17312
2016-05-18T10:50:45.275Z,17568
2016-05-18T10:51:45.326Z,17984
2016-05-18T10:52:45.343Z,18816
2016-05-18T10:53:45.315Z,19872
2016-05-18T10:54:45.443Z,20672
2016-05-18T10:55:45.492Z,21888
2016-05-18T10:56:45.479Z,21248
2016-05-18T10:57:45.467Z,20288
2016-05-18T10:58:45.516Z,20160
2016-05-18T10:59:45.519Z,21312
2016-05-18T11:00:45.615Z,22656
2016-05-18T11:01:45.681Z,23392
2016-05-18T11:02:45.839Z,23104
2016-05-18T11:03:45.733Z,21728
2016-05-18T11:04:45.922Z,20288
2016-05-18T11:05:45.957Z,46784
2016-05-18T11:06:45.991Z,20192
2016-05-18T11:07:46.478Z,25440
2016-05-18T11:08:45.746Z,13588
2016-05-18T11:09:45.967Z,12936
2016-05-18T11:10:46.049Z,13052
2016-05-18T11:11:46.223Z,13608
2016-05-18T11:12:46.288Z,14308
2016-05-18T11:13:46.072Z,15176
2016-05-18T11:14:46.324Z,16096
2016-05-18T11:15:46.701Z,17280
2016-05-18T11:16:46.299Z,18432
2016-05-18T11:17:46.364Z,19744
2016-05-18T11:18:46.523Z,21440
2016-05-18T11:19:46.587Z,24896
2016-05-18T11:20:46.700Z,51232
2016-05-18T11:21:46.625Z,119744
2016-05-18T11:22:46.706Z,120992
2016-05-18T11:23:47.583Z,125440
2016-05-18T11:24:46.851Z,136416
2016-05-18T11:25:46.807Z,136448
2016-05-18T11:26:46.856Z,137632
2016-05-18T11:27:47.063Z,113600
2016-05-18T11:28:47.050Z,40256
2016-05-18T11:29:47.239Z,32224
2016-05-18T11:30:47.102Z,27136
2016-05-18T11:31:47.308Z,25600
2016-05-18T11:32:47.200Z,25600
2016-05-18T11:33:47.266Z,31360
2016-05-18T11:34:47.300Z,24512
2016-05-18T11:35:47.303Z,21312
2016-05-18T11:36:47.243Z,19168
2016-05-18T11:37:47.699Z,17248
2016-05-18T11:38:47.842Z,15092
2016-05-18T11:39:47.376Z,13532
2016-05-18T11:40:47.566Z,12720
2016-05-18T11:41:47.460Z,12212
2016-05-18T11:42:47.650Z,11736
2016-05-18T11:43:47.730Z,11280
2016-05-18T11:44:47.999Z,10940
2016-05-18T11:45:48.017Z,10700
2016-05-18T11:46:48.160Z,10496
2016-05-18T11:47:47.929Z,10372
2016-05-18T11:48:47.822Z,10304
2016-05-18T11:49:47.997Z,10384
2016-05-18T11:50:47.906Z,10516
2016-05-18T11:51:49.033Z,10496
2016-05-18T11:52:48.115Z,10288
2016-05-18T11:53:48.054Z,10228
2016-05-18T11:54:48.089Z,10360
2016-05-18T11:55:48.856Z,10640
2016-05-18T11:56:48.344Z,11252
2016-05-18T11:57:48.456Z,11936
2016-05-18T11:58:48.411Z,12548
2016-05-18T11:59:48.492Z,13100
2016-05-18T12:00:48.480Z,13564
2016-05-18T12:01:48.528Z,13952
2016-05-18T12:02:51.625Z,14420
2016-05-18T12:03:48.628Z,14996
2016-05-18T12:04:48.694Z,15672
2016-05-18T12:05:48.399Z,16512
2016-05-18T12:06:48.792Z,17216
2016-05-18T12:07:48.827Z,17856
2016-05-18T12:08:49.032Z,18368
2016-05-18T12:09:48.738Z,18752
2016-05-18T12:10:48.975Z,19232
2016-05-18T12:11:48.931Z,19808
2016-05-18T12:12:49.043Z,20576
2016-05-18T12:13:48.936Z,21824
2016-05-18T12:14:49.204Z,23104
2016-05-18T12:15:49.160Z,23776
2016-05-18T12:16:49.304Z,24320
2016-05-18T12:17:49.321Z,26208
2016-05-18T12:18:49.122Z,23648
2016-05-18T12:19:49.515Z,22176
2016-05-18T12:20:49.423Z,22240
2016-05-18T12:21:49.427Z,22432
2016-05-18T12:22:50.914Z,22016
2016-05-18T12:23:49.634Z,21376
2016-05-18T12:24:49.623Z,20832
2016-05-18T12:25:49.593Z,20736
2016-05-18T12:26:49.737Z,20768
2016-05-18T12:27:49.942Z,20352
2016-05-18T12:28:51.008Z,19488
2016-05-18T12:29:49.839Z,18912
2016-05-18T12:30:49.825Z,18976
2016-05-18T12:31:49.750Z,19456
2016-05-18T12:32:50.019Z,20064
2016-05-18T12:33:50.005Z,20736
2016-05-18T12:34:50.025Z,21984
2016-05-18T12:35:50.714Z,23040
2016-05-18T12:36:53.091Z,23424
2016-05-18T12:37:50.392Z,23520
2016-05-18T12:38:50.035Z,23264
2016-05-18T12:39:50.990Z,23712
2016-05-18T12:40:50.337Z,24480
2016-05-18T12:41:50.340Z,25632
2016-05-18T12:42:50.593Z,27168
2016-05-18T12:43:50.266Z,28448
2016-05-18T12:44:51.535Z,29088
2016-05-18T12:45:51.366Z,29152
2016-05-18T12:46:51.479Z,30240
2016-05-18T12:47:54.965Z,32928
2016-05-18T12:48:52.483Z,39520
2016-05-18T12:49:51.690Z,63168
2016-05-18T12:50:50.754Z,40000
2016-05-18T12:51:50.632Z,33984
2016-05-18T12:52:50.698Z,32544
2016-05-18T12:53:50.747Z,32256
2016-05-18T12:54:52.687Z,33984
2016-05-18T12:55:51.018Z,34720
2016-05-18T12:56:51.349Z,31616
2016-05-18T12:57:51.117Z,29984
2016-05-18T12:58:52.604Z,30048
2016-05-18T12:59:53.403Z,32352
2016-05-18T13:00:51.984Z,31200
2016-05-18T13:01:51.550Z,29664
2016-05-18T13:02:51.490Z,29280
2016-05-18T13:03:51.414Z,29920
2016-05-18T13:04:52.011Z,30752
2016-05-18T13:05:51.295Z,29152
2016-05-18T13:06:51.548Z,38944
2016-05-18T13:07:51.628Z,37952
2016-05-18T13:08:51.459Z,27712
2016-05-18T13:09:51.994Z,27040
2016-05-18T13:10:51.621Z,26912
2016-05-18T13:11:51.827Z,26656
2016-05-18T13:12:51.626Z,25280
2016-05-18T13:13:51.676Z,22944
2016-05-18T13:14:51.975Z,20064
2016-05-18T13:15:53.119Z,17312
2016-05-18T13:16:51.652Z,15356
2016-05-18T13:17:51.843Z,14236
2016-05-18T13:18:52.127Z,13240
2016-05-18T13:19:52.363Z,12524
2016-05-18T13:20:52.163Z,11596
2016-05-18T13:21:52.494Z,10492
2016-05-18T13:22:53.512Z,9552
2016-05-18T13:23:52.531Z,8860
2016-05-18T13:24:52.158Z,8168
2016-05-18T13:25:52.411Z,7676